createdAt,value
2022-12-31T00:01:16.402Z,92855.81
2022-12-31T00:03:59.601Z,92862.19
2022-12-31T00:06:42.461Z,92865.84
2022-12-31T00:09:26.664Z,92851.63
2022-12-31T00:12:09.492Z,92857.19
2022-12-31T00:14:52.323Z,92854.19
2022-12-31T00:17:35.133Z,92848.59
2022-12-31T00:20:18.494Z,92855.06
2022-12-31T00:23:01.459Z,92859.88
2022-12-31T00:25:45.601Z,92858.56
2022-12-31T00:28:29.232Z,92859.25
2022-12-31T00:31:14.939Z,92860.28
2022-12-31T00:33:58.667Z,92870.00
2022-12-31T00:36:42.601Z,92863.81
2022-12-31T00:39:25.546Z,92878.25
2022-12-31T00:42:09.721Z,92877.63
2022-12-31T00:44:52.515Z,92882.22
2022-12-31T00:47:35.346Z,92886.06
2022-12-31T00:50:18.308Z,92880.94
2022-12-31T00:53:01.141Z,92887.53
2022-12-31T00:55:44.253Z,92887.00
2022-12-31T00:58:28.493Z,92894.66
2022-12-31T01:01:12.096Z,92894.91
2022-12-31T01:03:57.361Z,92899.13
2022-12-31T01:06:40.745Z,92907.31
2022-12-31T01:09:23.524Z,92919.13
2022-12-31T01:12:06.905Z,92910.25
2022-12-31T01:14:51.064Z,92915.09
2022-12-31T01:17:33.876Z,92910.97
2022-12-31T01:20:16.815Z,92918.72
2022-12-31T01:22:59.812Z,92927.38
2022-12-31T01:25:42.854Z,92911.41
2022-12-31T01:28:25.755Z,92912.63
2022-12-31T01:31:12.101Z,92912.66
2022-12-31T01:33:55.327Z,92918.06
2022-12-31T01:36:38.705Z,92914.31
2022-12-31T01:39:21.541Z,92923.22
2022-12-31T01:42:04.433Z,92921.34
2022-12-31T01:44:54.221Z,92924.44
2022-12-31T01:47:43.114Z,92928.47
2022-12-31T01:50:30.298Z,92927.00
2022-12-31T01:53:13.244Z,92925.66
2022-12-31T01:56:00.153Z,92930.78
2022-12-31T01:58:47.102Z,92926.47
2022-12-31T02:01:33.185Z,92932.13
2022-12-31T02:04:17.753Z,92925.69
2022-12-31T02:07:03.213Z,92932.03
2022-12-31T02:09:46.037Z,92927.44
2022-12-31T02:12:29.010Z,92933.13
2022-12-31T02:15:12.437Z,92925.31
2022-12-31T02:18:00.117Z,92951.56
2022-12-31T02:21:21.315Z,92940.50
2022-12-31T02:24:36.240Z,92938.63
2022-12-31T02:27:34.931Z,92945.25
2022-12-31T02:30:21.739Z,92940.13
2022-12-31T02:33:14.971Z,92940.38
2022-12-31T02:36:01.216Z,92935.41
2022-12-31T02:38:47.832Z,92932.47
2022-12-31T02:41:47.914Z,92926.69
2022-12-31T02:44:33.100Z,92926.81
2022-12-31T02:47:31.787Z,92935.31
2022-12-31T02:50:29.495Z,92931.53
2022-12-31T02:53:25.931Z,92933.03
2022-12-31T02:56:16.032Z,92931.00
2022-12-31T02:59:22.116Z,92930.75
2022-12-31T03:02:16.571Z,92934.66
2022-12-31T03:05:03.710Z,92941.09
2022-12-31T03:07:47.216Z,92939.09
2022-12-31T03:10:30.071Z,92943.94
2022-12-31T03:13:11.900Z,92943.00
2022-12-31T03:15:54.772Z,92958.78
2022-12-31T03:18:51.883Z,92951.88
2022-12-31T03:21:53.399Z,92950.00
2022-12-31T03:24:54.011Z,92958.50
2022-12-31T03:27:36.800Z,92955.13
2022-12-31T03:30:21.323Z,92959.28
2022-12-31T03:33:05.217Z,92972.78
2022-12-31T03:35:49.155Z,92969.28
2022-12-31T03:38:33.333Z,92974.28
2022-12-31T03:41:16.152Z,92976.28
2022-12-31T03:43:58.979Z,92986.81
2022-12-31T03:46:41.771Z,92985.75
2022-12-31T03:49:24.697Z,92985.75
2022-12-31T03:52:08.685Z,92987.38
2022-12-31T03:54:52.856Z,92990.88
2022-12-31T03:57:35.752Z,92986.53
2022-12-31T04:00:21.983Z,92985.59
2022-12-31T04:03:05.135Z,92985.59
2022-12-31T04:05:53.809Z,92990.88
2022-12-31T04:08:36.631Z,92994.09
2022-12-31T04:11:21.255Z,93000.03
2022-12-31T04:14:03.997Z,92997.63
2022-12-31T04:16:47.088Z,92996.94
2022-12-31T04:19:30.022Z,93000.03
2022-12-31T04:22:13.230Z,93010.28
2022-12-31T04:24:56.096Z,93003.69
2022-12-31T04:27:41.386Z,93009.75
2022-12-31T04:30:24.663Z,93006.34
2022-12-31T04:33:07.491Z,93014.03
2022-12-31T04:35:50.280Z,93015.91
2022-12-31T04:38:33.420Z,93017.00
2022-12-31T04:41:19.808Z,93016.75
2022-12-31T04:44:04.033Z,93022.41
2022-12-31T04:46:47.141Z,93024.97
2022-12-31T04:49:30.067Z,93031.00
2022-12-31T04:52:12.882Z,93018.47
2022-12-31T04:54:55.727Z,93036.66
2022-12-31T04:57:38.524Z,93040.13
2022-12-31T05:00:22.795Z,93039.84
2022-12-31T05:03:05.628Z,93039.66
2022-12-31T05:05:50.065Z,93043.97
2022-12-31T05:08:33.868Z,93045.72
2022-12-31T05:11:17.765Z,93052.50
2022-12-31T05:14:00.563Z,93054.78
2022-12-31T05:16:44.781Z,93060.19
2022-12-31T05:19:27.632Z,93051.69
2022-12-31T05:22:27.942Z,93059.13
2022-12-31T05:25:10.940Z,93068.28
2022-12-31T05:27:53.988Z,93073.94
2022-12-31T05:30:37.141Z,93074.88
2022-12-31T05:33:22.951Z,93079.75
2022-12-31T05:36:06.519Z,93073.69
2022-12-31T05:38:49.325Z,93066.94
2022-12-31T05:41:32.197Z,93077.38
2022-12-31T05:44:15.176Z,93064.78
2022-12-31T05:46:58.032Z,93065.06
2022-12-31T05:49:42.276Z,93063.66
2022-12-31T05:52:25.245Z,93060.13
2022-12-31T05:55:08.487Z,93072.97
2022-12-31T05:57:51.395Z,93088.75
2022-12-31T06:00:34.273Z,93083.91
2022-12-31T06:03:17.163Z,93094.03
2022-12-31T06:06:02.486Z,93091.47
2022-12-31T06:08:45.298Z,93087.94
2022-12-31T06:11:28.178Z,93077.59
2022-12-31T06:14:11.009Z,93086.75
2022-12-31T06:16:54.008Z,93090.53
2022-12-31T06:19:36.848Z,93102.41
2022-12-31T06:22:21.068Z,93099.44
2022-12-31T06:25:04.163Z,93097.53
2022-12-31T06:27:47.000Z,93095.41
2022-12-31T06:30:29.865Z,93104.56
2022-12-31T06:33:12.748Z,93102.69
2022-12-31T06:35:57.588Z,93104.72
2022-12-31T06:38:42.905Z,93106.47
2022-12-31T06:41:25.769Z,93109.41
2022-12-31T06:44:08.697Z,93112.53
2022-12-31T06:46:51.946Z,93118.88
2022-12-31T06:49:34.848Z,93112.25
2022-12-31T06:52:17.677Z,93105.38
2022-12-31T06:55:02.431Z,93116.44
2022-12-31T06:57:45.777Z,93104.16
2022-12-31T07:00:29.612Z,93102.13
2022-12-31T07:03:25.918Z,93114.53
2022-12-31T07:06:12.291Z,93121.97
2022-12-31T07:09:01.104Z,93111.56
2022-12-31T07:11:57.835Z,93123.03
2022-12-31T07:14:47.347Z,93132.47
2022-12-31T07:17:36.653Z,93133.84
2022-12-31T07:20:20.890Z,93128.16
2022-12-31T07:23:04.187Z,93127.50
2022-12-31T07:25:55.242Z,93132.75
2022-12-31T07:28:52.113Z,93133.59
2022-12-31T07:31:49.951Z,93141.81
2022-12-31T07:34:43.039Z,93131.72
2022-12-31T07:37:34.101Z,93142.66
2022-12-31T07:40:24.991Z,93139.66
2022-12-31T07:43:15.513Z,93151.81
2022-12-31T07:46:08.530Z,93141.81
2022-12-31T07:48:51.969Z,93154.81
2022-12-31T07:51:35.865Z,93151.00
2022-12-31T07:54:18.934Z,93157.34
2022-12-31T07:57:01.962Z,93162.34
2022-12-31T08:00:04.541Z,93169.78
2022-12-31T08:03:09.131Z,93172.06
2022-12-31T08:05:58.356Z,93174.09
2022-12-31T08:08:51.817Z,93179.59
2022-12-31T08:11:42.265Z,93181.38
2022-12-31T08:14:25.649Z,93191.06
2022-12-31T08:17:13.095Z,93177.88
2022-12-31T08:19:58.664Z,93177.88
2022-12-31T08:23:16.599Z,93190.31
2022-12-31T08:26:09.845Z,93177.22
2022-12-31T08:29:03.259Z,93174.50
2022-12-31T08:31:55.102Z,93188.78
2022-12-31T08:34:48.028Z,93189.75
2022-12-31T08:37:40.239Z,93191.50
2022-12-31T08:40:29.344Z,93202.97
2022-12-31T08:43:27.166Z,93200.41
2022-12-31T08:46:20.252Z,93202.31
2022-12-31T08:49:03.622Z,93205.44
2022-12-31T08:51:46.893Z,93208.94
2022-12-31T08:54:31.903Z,93209.63
2022-12-31T08:57:24.584Z,93212.06
2022-12-31T09:00:12.223Z,93223.53
2022-12-31T09:03:23.659Z,93216.78
2022-12-31T09:06:12.616Z,93221.78
2022-12-31T09:09:04.204Z,93221.66
2022-12-31T09:12:05.114Z,93226.09
2022-12-31T09:14:51.008Z,93220.03
2022-12-31T09:17:45.817Z,93221.22
2022-12-31T09:20:42.338Z,93226.59
2022-12-31T09:23:27.046Z,93231.84
2022-12-31T09:26:22.186Z,93227.91
2022-12-31T09:29:15.109Z,93226.28
2022-12-31T09:32:06.525Z,93226.16
2022-12-31T09:34:56.656Z,93217.28
2022-12-31T09:37:47.393Z,93212.56
2022-12-31T09:40:50.138Z,93212.91
2022-12-31T09:44:26.748Z,93217.31
2022-12-31T09:47:39.288Z,93212.94
2022-12-31T09:50:38.448Z,93221.06
2022-12-31T09:53:32.093Z,93193.03
2022-12-31T09:56:21.517Z,93222.81
2022-12-31T09:59:11.434Z,93207.53
2022-12-31T10:02:00.425Z,93203.13
2022-12-31T10:05:00.563Z,93217.53
2022-12-31T10:07:53.873Z,93208.53
2022-12-31T10:10:47.508Z,93215.91
2022-12-31T10:13:47.353Z,93219.78
2022-12-31T10:16:52.983Z,93202.94
2022-12-31T10:19:58.123Z,93200.66
2022-12-31T10:23:00.604Z,93222.56
2022-12-31T10:26:12.880Z,93190.19
2022-12-31T10:29:00.849Z,93196.97
2022-12-31T10:31:54.636Z,93192.94
2022-12-31T10:34:52.734Z,93180.16
2022-12-31T10:37:44.678Z,93201.56
2022-12-31T10:40:45.494Z,93206.94
2022-12-31T10:44:03.316Z,93197.31
2022-12-31T10:47:04.881Z,93196.19
2022-12-31T10:50:20.857Z,93190.91
2022-12-31T10:53:48.079Z,93208.50
2022-12-31T10:57:01.066Z,93203.47
2022-12-31T11:00:16.434Z,93185.50
2022-12-31T11:03:48.387Z,93193.53
2022-12-31T11:07:14.011Z,93188.66
2022-12-31T11:10:26.022Z,93172.03
2022-12-31T11:13:40.282Z,93173.56
2022-12-31T11:16:58.110Z,93189.75
2022-12-31T11:19:52.139Z,93192.16
2022-12-31T11:22:41.772Z,93191.16
2022-12-31T11:25:34.621Z,93180.91
2022-12-31T11:28:50.201Z,93205.44
2022-12-31T11:31:55.512Z,93189.66
2022-12-31T11:35:01.684Z,93183.19
2022-12-31T11:37:48.500Z,93197.41
2022-12-31T11:40:54.383Z,93195.44
2022-12-31T11:43:40.805Z,93193.50
2022-12-31T11:46:51.726Z,93181.66
2022-12-31T11:49:46.435Z,93199.41
2022-12-31T11:52:47.982Z,93188.44
2022-12-31T11:55:42.353Z,93190.56
2022-12-31T11:58:28.681Z,93193.31
2022-12-31T12:01:15.029Z,93184.31
2022-12-31T12:03:59.282Z,93195.13
2022-12-31T12:06:43.598Z,93197.53
2022-12-31T12:09:29.483Z,93191.28
2022-12-31T12:12:12.963Z,93201.72
2022-12-31T12:14:56.332Z,93193.69
2022-12-31T12:17:39.601Z,93187.56
2022-12-31T12:20:31.815Z,93186.13
2022-12-31T12:23:18.504Z,93204.47
2022-12-31T12:26:02.586Z,93202.19
2022-12-31T12:28:46.974Z,93201.84
2022-12-31T12:31:30.590Z,93207.28
2022-12-31T12:34:23.963Z,93197.25
2022-12-31T12:37:32.320Z,93202.69
2022-12-31T12:40:29.896Z,93202.50
2022-12-31T12:43:24.657Z,93203.91
2022-12-31T12:46:18.055Z,93201.16
2022-12-31T12:49:01.456Z,93191.69
2022-12-31T12:51:59.189Z,93197.34
2022-12-31T12:55:00.469Z,93178.78
2022-12-31T12:57:50.321Z,93175.59
2022-12-31T13:00:39.264Z,93177.41
2022-12-31T13:04:23.754Z,93189.41
2022-12-31T13:07:11.339Z,93194.94
2022-12-31T13:10:16.652Z,93186.91
2022-12-31T13:13:25.476Z,93181.94
2022-12-31T13:16:17.740Z,93178.38
2022-12-31T13:19:08.974Z,93172.94
2022-12-31T13:21:58.992Z,93175.22
2022-12-31T13:24:53.201Z,93174.78
2022-12-31T13:27:40.597Z,93173.88
2022-12-31T13:30:26.454Z,93176.72
2022-12-31T13:33:18.218Z,93177.25
2022-12-31T13:36:05.025Z,93176.72
2022-12-31T13:38:52.243Z,93181.72
2022-12-31T13:41:40.139Z,93174.28
2022-12-31T13:44:30.044Z,93184.59
2022-12-31T13:47:16.986Z,93180.09
2022-12-31T13:50:04.867Z,93192.19
2022-12-31T13:52:56.692Z,93193.53
2022-12-31T13:55:43.303Z,93184.53
2022-12-31T13:58:32.605Z,93193.56
2022-12-31T14:01:21.982Z,93202.59
2022-12-31T14:04:13.108Z,93199.06
2022-12-31T14:06:59.894Z,93209.38
2022-12-31T14:09:42.917Z,93214.53
2022-12-31T14:12:39.735Z,93215.69
2022-12-31T14:15:29.872Z,93216.63
2022-12-31T14:18:22.961Z,93217.78
2022-12-31T14:21:12.880Z,93211.97
2022-12-31T14:24:06.840Z,93202.72
2022-12-31T14:26:53.846Z,93198.19
2022-12-31T14:29:41.995Z,93206.38
2022-12-31T14:32:51.596Z,93209.13
2022-12-31T14:36:10.327Z,93212.97
2022-12-31T14:39:08.421Z,93211.63
2022-12-31T14:42:04.577Z,93219.53
2022-12-31T14:45:05.569Z,93220.50
2022-12-31T14:47:54.693Z,93227.22
2022-12-31T14:50:38.235Z,93240.22
2022-12-31T14:53:26.709Z,93240.50
2022-12-31T14:56:41.178Z,93237.72
2022-12-31T14:59:28.722Z,93240.69
2022-12-31T15:02:28.155Z,93236.00
2022-12-31T15:05:18.003Z,93229.88
2022-12-31T15:08:14.280Z,93227.75
2022-12-31T15:11:35.777Z,93227.03
2022-12-31T15:14:39.880Z,93223.13
2022-12-31T15:17:31.871Z,93221.25
2022-12-31T15:20:38.201Z,93223.41
2022-12-31T15:23:24.405Z,93230.97
2022-12-31T15:26:08.488Z,93227.00
2022-12-31T15:29:00.659Z,93220.91
2022-12-31T15:31:47.581Z,93230.09
2022-12-31T15:34:33.780Z,93233.78
2022-12-31T15:37:31.137Z,93230.53
2022-12-31T15:40:25.038Z,93240.44
2022-12-31T15:43:14.810Z,93246.03
2022-12-31T15:45:58.666Z,93242.00
2022-12-31T15:48:52.091Z,93247.66
2022-12-31T15:51:44.117Z,93253.38
2022-12-31T15:54:36.844Z,93245.97
2022-12-31T15:57:24.307Z,93246.78
2022-12-31T16:00:16.992Z,93242.97
2022-12-31T16:03:00.020Z,93243.97
2022-12-31T16:05:44.280Z,93237.59
2022-12-31T16:08:31.150Z,93251.91
2022-12-31T16:11:14.183Z,93250.47
2022-12-31T16:13:59.737Z,93250.25
2022-12-31T16:16:53.296Z,93256.28
2022-12-31T16:19:42.693Z,93251.50
2022-12-31T16:22:29.621Z,93254.06
2022-12-31T16:25:33.105Z,93255.31
2022-12-31T16:28:20.008Z,93249.06
2022-12-31T16:31:05.538Z,93243.91
2022-12-31T16:33:48.632Z,93244.28
2022-12-31T16:36:31.895Z,93246.94
2022-12-31T16:39:28.555Z,93239.28
2022-12-31T16:42:22.029Z,93251.44
2022-12-31T16:45:20.097Z,93246.78
2022-12-31T16:48:13.022Z,93255.78
2022-12-31T16:51:00.005Z,93259.22
2022-12-31T16:53:43.759Z,93257.63
2022-12-31T16:56:33.932Z,93253.84
2022-12-31T16:59:29.234Z,93263.56
2022-12-31T17:02:19.222Z,93256.72
2022-12-31T17:05:02.540Z,93266.03
2022-12-31T17:07:45.501Z,93265.59
2022-12-31T17:10:36.162Z,93266.81
2022-12-31T17:13:28.317Z,93268.91
2022-12-31T17:16:12.201Z,93267.06
2022-12-31T17:18:55.177Z,93266.78
2022-12-31T17:21:38.029Z,93264.16
2022-12-31T17:24:22.225Z,93271.59
2022-12-31T17:27:07.095Z,93276.84
2022-12-31T17:29:51.169Z,93268.03
2022-12-31T17:32:37.970Z,93267.59
2022-12-31T17:35:30.142Z,93270.00
2022-12-31T17:38:32.704Z,93270.16
2022-12-31T17:41:18.387Z,93262.56
2022-12-31T17:44:01.261Z,93255.25
2022-12-31T17:46:45.583Z,93258.19
2022-12-31T17:49:31.308Z,93272.97
2022-12-31T17:52:15.826Z,93271.88
2022-12-31T17:54:58.646Z,93275.53
2022-12-31T17:57:47.334Z,93269.00
2022-12-31T18:00:30.292Z,93270.13
2022-12-31T18:03:14.497Z,93268.94
2022-12-31T18:05:57.363Z,93272.31
2022-12-31T18:08:40.267Z,93270.59
2022-12-31T18:11:25.457Z,93275.03
2022-12-31T18:14:08.492Z,93282.75
2022-12-31T18:16:51.317Z,93274.91
2022-12-31T18:20:03.520Z,93279.00
2022-12-31T18:22:39.441Z,93279.59
2022-12-31T18:25:24.226Z,93273.34
2022-12-31T18:28:11.850Z,93280.50
2022-12-31T18:30:54.713Z,93281.13
2022-12-31T18:33:37.591Z,93277.91
2022-12-31T18:36:22.828Z,93275.41
2022-12-31T18:39:05.669Z,93274.63
2022-12-31T18:41:50.056Z,93280.41
2022-12-31T18:44:33.311Z,93266.25
2022-12-31T18:47:18.372Z,93263.03
2022-12-31T18:50:01.180Z,93266.50
2022-12-31T18:52:45.503Z,93259.28
2022-12-31T18:55:37.384Z,93269.31
2022-12-31T18:58:20.373Z,93263.84
2022-12-31T19:01:03.391Z,93260.03
2022-12-31T19:03:46.254Z,93256.13
2022-12-31T19:06:29.453Z,93258.84
2022-12-31T19:09:43.427Z,93263.72
2022-12-31T19:12:16.635Z,93259.91
2022-12-31T19:14:59.796Z,93260.91
2022-12-31T19:17:42.572Z,93267.22
2022-12-31T19:20:25.477Z,93262.53
2022-12-31T19:23:16.371Z,93260.25
2022-12-31T19:26:00.816Z,93254.56
2022-12-31T19:28:44.399Z,93258.53
2022-12-31T19:31:27.230Z,93247.28
2022-12-31T19:34:10.033Z,93250.75
2022-12-31T19:36:52.920Z,93249.63
2022-12-31T19:39:35.846Z,93249.66
2022-12-31T19:42:20.145Z,93245.25
2022-12-31T19:45:03.198Z,93244.28
2022-12-31T19:47:46.348Z,93247.41
2022-12-31T19:50:29.859Z,93242.22
2022-12-31T19:53:14.811Z,93248.31
2022-12-31T19:55:57.664Z,93247.72
2022-12-31T19:58:42.005Z,93243.41
2022-12-31T20:01:26.391Z,93254.34
2022-12-31T20:04:09.405Z,93248.88
2022-12-31T20:06:52.394Z,93249.22
2022-12-31T20:09:35.179Z,93243.22
2022-12-31T20:12:18.282Z,93242.91
2022-12-31T20:15:02.472Z,93259.53
2022-12-31T20:17:45.346Z,93257.66
2022-12-31T20:20:29.703Z,93247.16
2022-12-31T20:23:12.555Z,93245.56
2022-12-31T20:25:58.773Z,93252.88
2022-12-31T20:28:41.773Z,93246.41
2022-12-31T20:31:26.449Z,93243.09
2022-12-31T20:34:10.346Z,93245.09
2022-12-31T20:36:53.287Z,93254.06
2022-12-31T20:39:36.222Z,93247.75
2022-12-31T20:42:19.089Z,93256.44
2022-12-31T20:45:01.900Z,93252.72
2022-12-31T20:47:46.058Z,93245.28
2022-12-31T20:50:28.876Z,93252.22
2022-12-31T20:53:11.683Z,93248.28
2022-12-31T20:55:54.509Z,93231.28
2022-12-31T20:58:37.839Z,93231.72
2022-12-31T21:01:20.888Z,93234.97
2022-12-31T21:04:06.699Z,93239.72
2022-12-31T21:06:49.981Z,93242.66
2022-12-31T21:09:33.284Z,93247.53
2022-12-31T21:12:33.753Z,93253.00
2022-12-31T21:15:16.663Z,93248.22
2022-12-31T21:18:00.469Z,93243.44
2022-12-31T21:20:48.297Z,93249.22
2022-12-31T21:23:31.394Z,93254.72
2022-12-31T21:26:14.426Z,93258.28
2022-12-31T21:28:57.277Z,93256.31
2022-12-31T21:31:40.110Z,93273.63
2022-12-31T21:34:22.956Z,93284.19
2022-12-31T21:37:07.508Z,93284.28
2022-12-31T21:39:50.301Z,93286.66
2022-12-31T21:42:33.111Z,93286.16
2022-12-31T21:45:15.994Z,93287.22
2022-12-31T21:48:17.362Z,93281.41
2022-12-31T21:51:07.883Z,93279.66
2022-12-31T21:53:52.295Z,93282.97
2022-12-31T21:56:34.147Z,93282.31
2022-12-31T21:59:46.290Z,93282.16
2022-12-31T22:02:59.746Z,93295.56
2022-12-31T22:05:48.783Z,93285.56
2022-12-31T22:08:32.139Z,93289.00
2022-12-31T22:11:17.574Z,93283.91
2022-12-31T22:14:00.392Z,93290.56
2022-12-31T22:16:43.215Z,93295.34
2022-12-31T22:19:26.136Z,93287.09
2022-12-31T22:22:08.983Z,93300.13
2022-12-31T22:24:51.806Z,93297.91
2022-12-31T22:27:35.997Z,93294.88
2022-12-31T22:30:19.077Z,93304.59
2022-12-31T22:33:02.205Z,93299.50
2022-12-31T22:35:45.020Z,93306.47
2022-12-31T22:38:27.946Z,93308.09
2022-12-31T22:41:12.453Z,93305.69
2022-12-31T22:44:03.735Z,93314.66
2022-12-31T22:46:49.171Z,93311.31
2022-12-31T22:49:32.042Z,93309.53
2022-12-31T22:52:14.877Z,93316.13
2022-12-31T22:54:57.696Z,93323.44
2022-12-31T22:57:40.461Z,93310.25
2022-12-31T23:00:38.050Z,93318.31
2022-12-31T23:03:21.191Z,93319.28
2022-12-31T23:06:04.096Z,93310.56
2022-12-31T23:09:07.738Z,93307.31
2022-12-31T23:11:49.621Z,93303.25
2022-12-31T23:14:49.787Z,93308.06
2022-12-31T23:17:51.335Z,93308.19
2022-12-31T23:20:51.917Z,93307.09
2022-12-31T23:23:34.717Z,93307.56
2022-12-31T23:26:17.536Z,93297.38
2022-12-31T23:29:01.464Z,93299.09
2022-12-31T23:31:44.291Z,93300.25
2022-12-31T23:34:28.555Z,93293.19
2022-12-31T23:37:11.486Z,93282.38
2022-12-31T23:39:54.364Z,93292.03
2022-12-31T23:42:37.178Z,93282.22
2022-12-31T23:45:19.986Z,93290.41
2022-12-31T23:48:02.987Z,93291.00
2022-12-31T23:50:53.111Z,93298.34
2022-12-31T23:53:38.635Z,93292.03
2022-12-31T23:56:23.971Z,93288.34
2022-12-31T23:59:07.302Z,93297.53
